Terminal Aerodrome Forecast
Issued by NWS Charleston, WV

Current Version | Previous Version | Text Only | Print | Product List | Glossary Off
Versions: 1 2 3 4 5 6 7 8 9 10 11 12 13 14 15 16 17 18 19 20 21 22 23 24 25 26 27 28 29 30 31 32 33 34 35

000
FTUS41 KRLX 291720
TAFCRW
TAF
KCRW 291720Z 2918/3018 21004KT P6SM BKN035
     FM291930 24004KT P6SM VCTS BKN035CB
     FM300000 00000KT P6SM BKN050
     FM300500 00000KT 2SM BR BKN040
     FM300600 00000KT 1SM BR BKN001
     FM301400 VRB03KT 4SM HZ BKN035
     FM301600 VRB03KT P6SM VCTS BKN070CB=

USA.gov is the U.S. government's official web portal to all federal, state and local government web resources and services.